createdAt,value
2019-02-10T00:01:49.480Z,8.47
2019-02-10T00:06:54.942Z,11.63
2019-02-10T00:12:00.313Z,9.57
2019-02-10T00:17:05.853Z,4.17
2019-02-10T00:22:11.227Z,7.17
2019-02-10T00:27:16.942Z,9.47
2019-02-10T00:32:22.269Z,7.47
2019-02-10T00:37:27.610Z,5.72
2019-02-10T00:42:32.956Z,6.67
2019-02-10T00:47:38.437Z,7.30
2019-02-10T00:52:43.631Z,6.73
2019-02-10T00:57:48.803Z,32.53
2019-02-10T01:02:55.080Z,8.93
2019-02-10T01:08:01.067Z,11.23
2019-02-10T01:13:06.859Z,11.70
2019-02-10T01:18:13.255Z,26.15
2019-02-10T01:23:18.803Z,13.10
2019-02-10T01:28:24.575Z,96.37
2019-02-10T01:33:29.827Z,10.60
2019-02-10T01:38:35.179Z,26.33
2019-02-10T01:43:40.753Z,14.80
2019-02-10T01:48:46.207Z,13.03
2019-02-10T01:53:51.878Z,13.53
2019-02-10T01:58:57.544Z,11.33
2019-02-10T02:04:02.899Z,19.07
2019-02-10T02:09:10.421Z,11.63
2019-02-10T02:14:15.864Z,8.80
2019-02-10T02:19:21.745Z,9.70
2019-02-10T02:24:27.404Z,13.03
2019-02-10T02:29:32.871Z,14.07
2019-02-10T02:34:38.541Z,16.83
2019-02-10T02:39:43.792Z,9.63
2019-02-10T02:44:49.259Z,13.13
2019-02-10T02:49:55.248Z,9.37
2019-02-10T02:55:00.670Z,10.00
2019-02-10T03:00:08.485Z,9.67
2019-02-10T03:05:13.673Z,12.83
2019-02-10T03:10:19.021Z,13.35
2019-02-10T03:15:24.377Z,10.97
2019-02-10T03:20:29.932Z,8.53
2019-02-10T03:25:35.199Z,11.57
2019-02-10T03:30:40.805Z,14.37
2019-02-10T03:35:46.107Z,12.67
2019-02-10T03:40:51.482Z,10.77
2019-02-10T03:45:57.136Z,11.17
2019-02-10T03:51:02.497Z,10.73
2019-02-10T03:56:08.066Z,9.90
2019-02-10T04:01:13.402Z,12.73
2019-02-10T04:06:19.088Z,15.75
2019-02-10T04:11:24.453Z,13.83
2019-02-10T04:16:30.023Z,9.23
2019-02-10T04:21:35.728Z,12.13
2019-02-10T04:26:40.926Z,13.30
2019-02-10T04:31:46.154Z,11.20
2019-02-10T04:36:51.519Z,11.67
2019-02-10T04:41:56.828Z,15.37
2019-02-10T04:47:02.057Z,13.27
2019-02-10T04:52:07.460Z,12.10
2019-02-10T04:57:13.186Z,12.90
2019-02-10T05:02:20.427Z,13.38
2019-02-10T05:07:25.761Z,13.80
2019-02-10T05:12:30.999Z,8.60
2019-02-10T05:17:36.793Z,12.43
2019-02-10T05:22:42.124Z,7.63
2019-02-10T05:27:47.270Z,12.17
2019-02-10T05:32:52.458Z,10.27
2019-02-10T05:38:03.822Z,12.20
2019-02-10T05:43:05.482Z,10.65
2019-02-10T05:48:10.886Z,8.90
2019-02-10T05:53:16.426Z,13.90
2019-02-10T05:58:22.001Z,10.75
2019-02-10T06:03:27.482Z,10.33
2019-02-10T06:08:33.115Z,12.43
2019-02-10T06:13:38.487Z,13.57
2019-02-10T06:18:43.835Z,15.83
2019-02-10T06:23:49.511Z,25.80
2019-02-10T06:28:55.064Z,15.17
2019-02-10T06:34:00.231Z,12.73
2019-02-10T06:39:06.748Z,8.73
2019-02-10T06:44:12.219Z,32.43
2019-02-10T06:49:17.809Z,13.98
2019-02-10T06:54:23.114Z,25.37
2019-02-10T06:59:48.828Z,16.53
2019-02-10T07:04:54.190Z,93.50
2019-02-10T07:09:59.754Z,26.53
2019-02-10T07:15:05.998Z,17.15
2019-02-10T07:20:36.815Z,17.83
2019-02-10T07:25:44.688Z,42.57
2019-02-10T07:30:58.838Z,15.27
2019-02-10T07:36:19.105Z,16.73
2019-02-10T07:41:45.745Z,35.55
2019-02-10T07:47:00.025Z,12.30
2019-02-10T07:52:29.579Z,23.27
2019-02-10T07:58:09.411Z,21.23
2019-02-10T08:03:23.682Z,48.40
2019-02-10T08:08:46.612Z,19.93
2019-02-10T08:14:22.613Z,19.67
2019-02-10T08:19:36.880Z,17.97
2019-02-10T08:24:57.132Z,25.20
2019-02-10T08:30:28.035Z,17.00
2019-02-10T08:35:43.269Z,18.03
2019-02-10T08:41:04.217Z,17.13
2019-02-10T08:46:12.503Z,11.22
2019-02-10T08:51:40.168Z,21.67
2019-02-10T08:56:45.455Z,25.88
2019-02-10T09:01:50.661Z,49.70
2019-02-10T09:06:55.930Z,20.63
2019-02-10T09:12:01.400Z,24.97
2019-02-10T09:17:06.884Z,18.03
2019-02-10T09:22:12.181Z,16.40
2019-02-10T09:27:18.424Z,13.47
2019-02-10T09:32:24.678Z,19.70
2019-02-10T09:37:30.246Z,24.13
2019-02-10T09:42:37.545Z,38.57
2019-02-10T09:47:43.301Z,18.60
2019-02-10T09:52:48.563Z,23.63
2019-02-10T09:57:54.143Z,70.20
2019-02-10T10:02:59.294Z,56.47
2019-02-10T10:08:04.984Z,23.12
2019-02-10T10:13:10.887Z,22.45
2019-02-10T10:18:16.573Z,26.95
2019-02-10T10:23:22.570Z,18.90
2019-02-10T10:28:27.930Z,17.40
2019-02-10T10:33:33.497Z,12.88
2019-02-10T10:38:38.957Z,28.27
2019-02-10T10:43:44.322Z,30.60
2019-02-10T10:48:49.987Z,14.97
2019-02-10T10:53:55.353Z,30.00
2019-02-10T10:59:02.004Z,19.67
2019-02-10T11:04:07.287Z,13.93
2019-02-10T11:09:12.688Z,19.00
2019-02-10T11:14:19.897Z,16.93
2019-02-10T11:19:25.154Z,16.13
2019-02-10T11:24:30.673Z,15.53
2019-02-10T11:29:36.009Z,19.20
2019-02-10T11:34:46.103Z,37.13
2019-02-10T11:39:48.175Z,39.80
2019-02-10T11:44:53.449Z,35.83
2019-02-10T11:49:58.719Z,49.97
2019-02-10T11:55:06.349Z,19.02
2019-02-10T12:00:17.197Z,17.40
2019-02-10T12:05:22.539Z,18.73
2019-02-10T12:10:28.634Z,17.83
2019-02-10T12:15:33.978Z,18.55
2019-02-10T12:20:39.344Z,29.60
2019-02-10T12:25:44.878Z,25.40
2019-02-10T12:30:50.686Z,34.77
2019-02-10T12:35:58.328Z,30.23
2019-02-10T12:41:03.207Z,25.20
2019-02-10T12:46:08.585Z,21.10
2019-02-10T12:51:14.110Z,16.20
2019-02-10T12:56:19.315Z,35.00
2019-02-10T13:01:24.877Z,20.30
2019-02-10T13:06:30.336Z,21.67
2019-02-10T13:11:35.811Z,39.23
2019-02-10T13:16:41.087Z,19.30
2019-02-10T13:21:46.488Z,17.10
2019-02-10T13:26:51.814Z,31.50
2019-02-10T13:31:57.088Z,66.60
2019-02-10T13:37:02.700Z,36.50
2019-02-10T13:42:08.038Z,44.25
2019-02-10T13:47:13.605Z,65.57
2019-02-10T13:52:19.263Z,23.30
2019-02-10T13:57:24.624Z,24.70
2019-02-10T14:02:30.089Z,42.00
2019-02-10T14:07:35.646Z,43.93
2019-02-10T14:12:40.988Z,37.93
2019-02-10T14:17:46.588Z,40.57
2019-02-10T14:22:51.855Z,27.50
2019-02-10T14:27:57.394Z,22.97
2019-02-10T14:33:02.961Z,29.50
2019-02-10T14:38:08.721Z,23.00
2019-02-10T14:43:13.987Z,39.05
2019-02-10T14:48:19.089Z,40.83
2019-02-10T14:53:24.454Z,30.37
2019-02-10T14:58:29.853Z,28.30
2019-02-10T15:03:35.004Z,40.03
2019-02-10T15:08:40.495Z,32.20
2019-02-10T15:13:46.068Z,39.20
2019-02-10T15:18:51.804Z,46.00
2019-02-10T15:23:57.051Z,64.40
2019-02-10T15:29:02.605Z,37.57
2019-02-10T15:34:08.180Z,34.47
2019-02-10T15:39:16.130Z,44.60
2019-02-10T15:44:21.396Z,42.03
2019-02-10T15:49:26.790Z,37.55
2019-02-10T15:54:32.276Z,46.63
2019-02-10T15:59:37.451Z,46.03
2019-02-10T16:04:42.796Z,46.60
2019-02-10T16:09:48.173Z,129.07
2019-02-10T16:14:53.521Z,58.07
2019-02-10T16:19:58.909Z,55.70
2019-02-10T16:25:06.698Z,54.50
2019-02-10T16:30:17.678Z,118.40
2019-02-10T16:35:22.937Z,47.27
2019-02-10T16:40:27.982Z,50.63
2019-02-10T16:45:33.385Z,53.50
2019-02-10T16:50:38.594Z,47.53
2019-02-10T16:55:43.902Z,44.53
2019-02-10T17:00:49.307Z,50.43
2019-02-10T17:05:54.777Z,43.77
2019-02-10T17:11:00.253Z,44.30
2019-02-10T17:16:05.593Z,47.97
2019-02-10T17:21:10.753Z,52.43
2019-02-10T17:26:15.936Z,48.20
2019-02-10T17:31:21.886Z,51.13
2019-02-10T17:36:27.544Z,52.17
2019-02-10T17:41:33.009Z,45.63
2019-02-10T17:46:38.116Z,45.67
2019-02-10T17:51:43.346Z,48.87
2019-02-10T17:56:48.745Z,56.00
2019-02-10T18:01:54.363Z,50.90
2019-02-10T18:07:00.013Z,53.87
2019-02-10T18:12:05.387Z,49.53
2019-02-10T18:17:17.630Z,53.60
2019-02-10T18:22:34.836Z,49.73
2019-02-10T18:27:41.664Z,48.63
2019-02-10T18:32:48.941Z,46.70
2019-02-10T18:37:55.986Z,48.60
2019-02-10T18:43:08.852Z,42.65
2019-02-10T18:48:15.755Z,49.37
2019-02-10T18:53:38.936Z,44.70
2019-02-10T18:58:59.213Z,44.63
2019-02-10T19:04:07.045Z,48.10
2019-02-10T19:09:14.246Z,54.10
2019-02-10T19:14:27.376Z,48.97
2019-02-10T19:19:34.280Z,47.23
2019-02-10T19:24:46.756Z,50.97
2019-02-10T19:29:59.751Z,48.73
2019-02-10T19:35:23.443Z,45.43
2019-02-10T19:40:35.965Z,50.57
2019-02-10T19:45:45.796Z,48.10
2019-02-10T19:51:09.105Z,50.00
2019-02-10T19:56:32.166Z,57.67
2019-02-10T20:01:54.212Z,51.93
2019-02-10T20:07:01.223Z,47.83
2019-02-10T20:12:09.251Z,48.53
2019-02-10T20:17:31.317Z,64.07
2019-02-10T20:22:47.506Z,57.88
2019-02-10T20:27:57.467Z,65.40
2019-02-10T20:33:21.169Z,52.33
2019-02-10T20:38:39.243Z,47.30
2019-02-10T20:43:46.300Z,57.67
2019-02-10T20:48:56.486Z,49.50
2019-02-10T20:54:20.310Z,51.63
2019-02-10T20:59:33.514Z,54.70
2019-02-10T21:04:52.197Z,48.97
2019-02-10T21:10:16.336Z,65.90
2019-02-10T21:15:35.511Z,57.20
2019-02-10T21:20:45.420Z,62.93
2019-02-10T21:25:59.062Z,47.43
2019-02-10T21:31:12.376Z,57.65
2019-02-10T21:36:28.038Z,55.63
2019-02-10T21:41:35.132Z,54.13
2019-02-10T21:46:42.049Z,57.53
2019-02-10T21:51:47.497Z,51.90
2019-02-10T21:56:52.869Z,54.40
2019-02-10T22:01:58.610Z,56.03
2019-02-10T22:07:04.895Z,57.33
2019-02-10T22:12:10.266Z,73.07
2019-02-10T22:17:15.830Z,60.77
2019-02-10T22:22:21.166Z,57.73
2019-02-10T22:27:27.038Z,55.57
2019-02-10T22:32:32.408Z,61.60
2019-02-10T22:37:37.876Z,63.97
2019-02-10T22:42:45.747Z,52.77
2019-02-10T22:47:50.815Z,60.07
2019-02-10T22:52:56.015Z,76.13
2019-02-10T22:58:01.249Z,57.03
2019-02-10T23:03:07.220Z,101.57
2019-02-10T23:08:12.575Z,69.07
2019-02-10T23:13:18.250Z,79.40
2019-02-10T23:18:23.716Z,70.97
2019-02-10T23:23:29.071Z,102.10
2019-02-10T23:28:34.636Z,90.03
2019-02-10T23:33:39.845Z,95.27
2019-02-10T23:38:45.367Z,72.37
2019-02-10T23:43:50.786Z,69.03
2019-02-10T23:48:56.165Z,85.03
2019-02-10T23:54:01.429Z,85.30
2019-02-10T23:59:06.789Z,63.23
